Date,TemperatureHighF,TemperatureAvgF,TemperatureLowF,DewpointHighF,DewpointAvgF,DewpointLowF,HumidityHigh,HumidityAvg,HumidityLow,PressureMaxIn,PressureMinIn,WindSpeedMaxMPH,WindSpeedAvgMPH,GustSpeedMaxMPH,PrecipitationSumIn
2013-8-1,96,79,71,79,74,71,99,86,53,30.07,29.95,6,1,16,0.96
2013-8-2,92,78,71,82,75,71,99,90,57,30.06,29.95,8,1,27,1.25
2013-8-3,93,78,73,80,75,72,99,92,61,30.10,30.02,5,1,17,0.88
2013-8-4,89,79,74,81,77,74,99,93,72,30.11,30.01,7,1,14,0.16
2013-8-5,91,81,75,83,78,74,99,90,67,30.04,29.93,4,1,24,0.71
2013-8-6,94,81,73,80,76,73,99,87,60,30.01,29.90,6,1,12,0.01
2013-8-7,96,80,75,80,76,74,99,89,54,29.98,29.91,9,2,19,0.38
2013-8-8,96,80,74,80,76,72,99,90,58,30.05,29.95,11,1,22,0.60
2013-8-9,94,78,74,80,75,73,99,91,57,30.07,29.98,6,1,12,0.53
2013-8-18,80,76,74,77,74,73,98,94,86,30.12,30.02,3,1,10,0.38
2013-8-19,92,76,73,81,65,-100,99,89,61,30.11,29.97,5,1,13,0.38
2013-8-20,94,78,72,80,73,-100,99,89,57,30.10,29.99,8,2,25,0.74
2013-8-21,93,79,72,81,76,71,99,92,62,30.12,30.02,8,2,16,0.57
2013-8-22,91,78,72,82,76,70,99,93,65,30.09,30.00,13,2,40,1.39
2013-8-23,93,80,74,80,76,72,99,89,61,30.03,29.94,8,1,18,0.20
2013-8-24,92,78,72,82,75,71,99,90,63,30.12,30.01,10,1,20,0.18
2013-8-25,89,78,73,79,74,-100,99,91,70,30.16,30.09,7,2,15,0.12
2013-8-26,88,78,73,79,75,71,99,92,66,30.14,30.02,5,1,20,0.36
2013-8-27,90,78,71,78,74,71,99,89,63,30.07,29.99,7,2,14,0.31
2013-8-28,92,82,71,76,72,70,96,74,50,30.06,29.99,7,2,19,0.00
2013-8-29,91,78,70,78,73,69,99,86,54,30.05,29.94,4,1,11,0.37
2013-8-30,92,79,72,81,75,72,99,89,66,30.00,29.91,8,1,18,0.37
2013-8-31,90,79,72,80,74,71,99,86,61,29.99,29.91,7,1,15,0.00